createdAt,value
2023-05-23T00:00:15.169Z,120.01
2023-05-23T00:01:16.161Z,118.23
2023-05-23T00:02:16.318Z,118.77
2023-05-23T00:03:16.404Z,118.77
2023-05-23T00:04:16.206Z,118.85
2023-05-23T00:05:15.142Z,120.13
2023-05-23T00:06:16.143Z,121.16
2023-05-23T00:07:15.171Z,118.20
2023-05-23T00:08:15.253Z,118.49
2023-05-23T00:09:16.299Z,119.49
2023-05-23T00:10:15.370Z,120.62
2023-05-23T00:11:16.420Z,118.79
2023-05-23T00:12:16.496Z,116.81
2023-05-23T00:13:15.529Z,119.64
2023-05-23T00:14:15.583Z,118.17
2023-05-23T00:15:16.619Z,118.03
2023-05-23T00:16:16.698Z,119.45
2023-05-23T00:17:16.753Z,119.11
2023-05-23T00:18:16.951Z,120.60
2023-05-23T00:19:15.916Z,119.60
2023-05-23T00:20:15.951Z,119.23
2023-05-23T00:21:16.027Z,119.36
2023-05-23T00:22:16.057Z,119.61
2023-05-23T00:23:16.132Z,119.46
2023-05-23T00:24:17.149Z,118.56
2023-05-23T00:25:17.221Z,116.90
2023-05-23T00:26:16.274Z,119.88
2023-05-23T00:27:17.334Z,118.99
2023-05-23T00:28:16.374Z,119.42
2023-05-23T00:29:17.433Z,120.98
2023-05-23T00:30:16.443Z,120.14
2023-05-23T00:31:16.548Z,118.37
2023-05-23T00:32:17.538Z,117.60
2023-05-23T00:33:17.605Z,119.25
2023-05-23T00:34:18.054Z,118.26
2023-05-23T00:35:16.650Z,121.23
2023-05-23T00:36:17.707Z,117.58
2023-05-23T00:37:16.776Z,117.29
2023-05-23T00:38:17.844Z,117.91
2023-05-23T00:39:17.924Z,118.82
2023-05-23T00:40:17.968Z,119.02
2023-05-23T00:41:18.020Z,118.18
2023-05-23T00:42:18.080Z,117.05
2023-05-23T00:43:17.134Z,116.43
2023-05-23T00:44:18.223Z,119.15
2023-05-23T00:45:18.250Z,118.00
2023-05-23T00:46:18.338Z,118.95
2023-05-23T00:47:18.383Z,118.56
2023-05-23T00:48:18.417Z,118.66
2023-05-23T00:49:18.483Z,117.67
2023-05-23T00:50:17.670Z,119.83
2023-05-23T00:51:18.592Z,117.42
2023-05-23T00:52:18.650Z,116.35
2023-05-23T00:53:18.721Z,115.03
2023-05-23T00:54:17.752Z,118.29
2023-05-23T00:55:17.786Z,114.80
2023-05-23T00:56:18.824Z,118.66
2023-05-23T00:57:17.884Z,118.07
2023-05-23T00:58:18.922Z,116.47
2023-05-23T00:59:18.975Z,117.67
2023-05-23T01:00:19.036Z,116.06
2023-05-23T01:01:18.118Z,116.86
2023-05-23T01:02:19.174Z,116.05
2023-05-23T01:03:19.237Z,119.63
2023-05-23T01:04:19.256Z,117.32
2023-05-23T01:05:19.443Z,117.11
2023-05-23T01:06:18.340Z,118.71
2023-05-23T01:07:19.381Z,116.70
2023-05-23T01:08:18.454Z,121.27
2023-05-23T01:09:18.491Z,113.86
2023-05-23T01:10:19.545Z,116.18
2023-05-23T01:11:19.581Z,119.76
2023-05-23T01:12:18.653Z,117.31
2023-05-23T01:13:18.681Z,113.66
2023-05-23T01:14:19.706Z,119.05
2023-05-23T01:15:18.759Z,118.93
2023-05-23T01:16:19.903Z,115.88
2023-05-23T01:17:19.902Z,116.08
2023-05-23T01:18:19.930Z,115.92
2023-05-23T01:19:19.041Z,117.98
2023-05-23T01:20:20.048Z,118.78
2023-05-23T01:21:20.205Z,118.70
2023-05-23T01:22:19.138Z,115.56
2023-05-23T01:23:19.187Z,118.51
2023-05-23T01:24:19.232Z,117.61
2023-05-23T01:25:20.269Z,116.45
2023-05-23T01:26:20.351Z,117.46
2023-05-23T01:27:19.395Z,116.92
2023-05-23T01:28:20.430Z,118.02
2023-05-23T01:29:20.472Z,117.59
2023-05-23T01:30:20.509Z,117.93
2023-05-23T01:31:19.590Z,116.86
2023-05-23T01:32:20.553Z,114.57
2023-05-23T01:33:19.615Z,117.65
2023-05-23T01:34:20.709Z,114.67
2023-05-23T01:35:20.709Z,116.62
2023-05-23T01:36:19.773Z,117.96
2023-05-23T01:37:19.961Z,117.52
2023-05-23T01:38:20.859Z,114.45
2023-05-23T01:39:20.918Z,116.48
2023-05-23T01:40:20.974Z,118.52
2023-05-23T01:41:20.022Z,114.98
2023-05-23T01:42:20.069Z,115.15
2023-05-23T01:43:21.132Z,112.74
2023-05-23T01:44:21.250Z,116.32
2023-05-23T01:45:21.079Z,114.70
2023-05-23T01:46:21.188Z,117.93
2023-05-23T01:47:21.159Z,115.07
2023-05-23T01:48:20.224Z,117.45
2023-05-23T01:49:20.226Z,115.05
2023-05-23T01:50:21.253Z,115.59
2023-05-23T01:51:20.289Z,115.71
2023-05-23T01:52:20.352Z,116.61
2023-05-23T01:53:20.490Z,113.76
2023-05-23T01:54:20.403Z,115.10
2023-05-23T01:55:21.423Z,115.35
2023-05-23T01:56:20.465Z,116.70
2023-05-23T01:57:21.530Z,115.64
2023-05-23T01:58:20.515Z,115.06
2023-05-23T01:59:20.534Z,115.03
2023-05-23T02:00:20.565Z,114.75
2023-05-23T02:01:21.610Z,115.58
2023-05-23T02:02:20.660Z,115.08
2023-05-23T02:03:20.714Z,113.62
2023-05-23T02:04:20.538Z,116.46
2023-05-23T02:05:20.542Z,113.63
2023-05-23T02:06:21.557Z,114.13
2023-05-23T02:07:21.565Z,114.59
2023-05-23T02:08:21.548Z,113.15
2023-05-23T02:09:21.668Z,116.02
2023-05-23T02:10:21.589Z,114.53
2023-05-23T02:11:21.600Z,114.32
2023-05-23T02:12:21.598Z,114.53
2023-05-23T02:13:20.623Z,113.57
2023-05-23T02:14:21.624Z,113.51
2023-05-23T02:15:20.657Z,114.16
2023-05-23T02:16:20.724Z,112.10
2023-05-23T02:17:20.725Z,115.72
2023-05-23T02:18:21.742Z,111.37
2023-05-23T02:19:21.860Z,111.87
2023-05-23T02:20:20.835Z,113.66
2023-05-23T02:21:20.869Z,113.71
2023-05-23T02:22:20.957Z,109.62
2023-05-23T02:23:20.925Z,115.17
2023-05-23T02:24:21.953Z,112.79
2023-05-23T02:25:22.102Z,113.73
2023-05-23T02:26:21.009Z,115.04
2023-05-23T02:27:21.044Z,113.45
2023-05-23T02:28:21.145Z,115.06
2023-05-23T02:29:21.054Z,114.71
2023-05-23T02:30:22.087Z,113.72
2023-05-23T02:31:22.177Z,112.86
2023-05-23T02:32:22.150Z,114.64
2023-05-23T02:33:22.169Z,113.07
2023-05-23T02:34:21.176Z,114.30
2023-05-23T02:35:21.192Z,111.35
2023-05-23T02:36:22.190Z,112.07
2023-05-23T02:37:22.227Z,113.98
2023-05-23T02:38:22.272Z,111.88
2023-05-23T02:39:21.256Z,111.05
2023-05-23T02:40:22.261Z,111.34
2023-05-23T02:41:21.375Z,110.12
2023-05-23T02:42:22.267Z,112.71
2023-05-23T02:43:21.267Z,114.72
2023-05-23T02:44:21.266Z,113.30
2023-05-23T02:45:22.272Z,113.75
2023-05-23T02:46:22.288Z,114.16
2023-05-23T02:47:22.325Z,113.07
2023-05-23T02:48:22.256Z,111.87
2023-05-23T02:49:22.266Z,113.97
2023-05-23T02:50:22.260Z,111.86
2023-05-23T02:51:22.268Z,113.21
2023-05-23T02:52:21.257Z,112.51
2023-05-23T02:53:22.247Z,110.85
2023-05-23T02:54:22.229Z,111.46
2023-05-23T02:55:22.239Z,114.48
2023-05-23T02:56:22.334Z,110.63
2023-05-23T02:57:22.358Z,115.45
2023-05-23T02:58:22.273Z,112.75
2023-05-23T02:59:22.236Z,111.38
2023-05-23T03:00:21.267Z,110.04
2023-05-23T03:01:21.247Z,111.75
2023-05-23T03:02:21.239Z,111.75
2023-05-23T03:03:22.271Z,112.94
2023-05-23T03:04:22.245Z,112.67
2023-05-23T03:05:22.216Z,110.71
2023-05-23T03:06:21.227Z,111.14
2023-05-23T03:07:28.168Z,112.98
2023-05-23T03:08:22.205Z,113.18
2023-05-23T03:09:21.196Z,113.64
2023-05-23T03:10:22.182Z,113.59
2023-05-23T03:11:22.189Z,112.99
2023-05-23T03:12:21.171Z,112.96
2023-05-23T03:13:21.327Z,111.20
2023-05-23T03:14:21.163Z,111.72
2023-05-23T03:15:22.155Z,111.24
2023-05-23T03:16:22.203Z,113.41
2023-05-23T03:17:22.190Z,110.65
2023-05-23T03:18:22.135Z,111.45
2023-05-23T03:19:22.165Z,108.30
2023-05-23T03:20:21.120Z,110.40
2023-05-23T03:21:22.106Z,110.95
2023-05-23T03:22:21.109Z,110.41
2023-05-23T03:23:21.105Z,111.12
2023-05-23T03:24:21.172Z,113.67
2023-05-23T03:25:22.122Z,113.67
2023-05-23T03:26:22.076Z,111.51
2023-05-23T03:27:21.070Z,111.82
2023-05-23T03:28:21.071Z,110.18
2023-05-23T03:29:22.185Z,112.61
2023-05-23T03:30:21.054Z,111.73
2023-05-23T03:31:22.072Z,112.14
2023-05-23T03:32:22.052Z,111.43
2023-05-23T03:33:22.027Z,112.58
2023-05-23T03:34:21.023Z,111.62
2023-05-23T03:35:21.020Z,112.11
2023-05-23T03:36:22.022Z,110.32
2023-05-23T03:37:22.035Z,109.99
2023-05-23T03:38:22.010Z,112.27
2023-05-23T03:39:21.993Z,112.81
2023-05-23T03:40:20.988Z,110.94
2023-05-23T03:41:21.981Z,112.12
2023-05-23T03:42:22.001Z,110.59
2023-05-23T03:43:20.993Z,111.83
2023-05-23T03:44:21.963Z,110.80
2023-05-23T03:45:22.093Z,110.91
2023-05-23T03:46:21.031Z,112.66
2023-05-23T03:47:20.948Z,111.07
2023-05-23T03:48:20.964Z,108.38
2023-05-23T03:49:21.928Z,109.47
2023-05-23T03:50:20.924Z,111.91
2023-05-23T03:51:21.930Z,113.53
2023-05-23T03:52:21.919Z,108.40
2023-05-23T03:53:21.905Z,109.64
2023-05-23T03:54:21.895Z,108.47
2023-05-23T03:55:21.891Z,109.79
2023-05-23T03:56:20.893Z,111.67
2023-05-23T03:57:20.877Z,109.81
2023-05-23T03:58:20.869Z,110.32
2023-05-23T03:59:20.878Z,110.72
2023-05-23T04:00:20.861Z,109.91
2023-05-23T04:01:20.982Z,110.99
2023-05-23T04:02:21.965Z,109.00
2023-05-23T04:03:21.985Z,109.26
2023-05-23T04:04:21.914Z,108.47
2023-05-23T04:05:20.830Z,109.51
2023-05-23T04:06:21.829Z,106.76
2023-05-23T04:07:21.095Z,107.95
2023-05-23T04:08:21.813Z,110.19
2023-05-23T04:09:21.800Z,106.43
2023-05-23T04:10:20.825Z,109.95
2023-05-23T04:11:20.799Z,111.10
2023-05-23T04:12:21.781Z,110.95
2023-05-23T04:13:21.776Z,108.58
2023-05-23T04:14:21.767Z,107.97
2023-05-23T04:15:21.840Z,109.14
2023-05-23T04:16:20.765Z,107.72
2023-05-23T04:17:21.975Z,105.78
2023-05-23T04:18:20.745Z,109.02
2023-05-23T04:19:20.735Z,107.40
2023-05-23T04:20:20.721Z,108.07
2023-05-23T04:21:21.734Z,109.53
2023-05-23T04:22:21.737Z,109.15
2023-05-23T04:23:20.745Z,107.93
2023-05-23T04:24:21.724Z,107.86
2023-05-23T04:25:20.698Z,108.64
2023-05-23T04:26:20.684Z,108.25
2023-05-23T04:27:20.704Z,109.84
2023-05-23T04:28:20.689Z,107.51
2023-05-23T04:29:21.692Z,110.05
2023-05-23T04:30:20.669Z,107.97
2023-05-23T04:31:20.722Z,109.31
2023-05-23T04:32:21.680Z,107.63
2023-05-23T04:33:20.784Z,105.95
2023-05-23T04:34:21.652Z,110.34
2023-05-23T04:35:21.644Z,108.44
2023-05-23T04:36:21.634Z,107.40
2023-05-23T04:37:21.631Z,108.51
2023-05-23T04:38:21.625Z,109.99
2023-05-23T04:39:20.603Z,111.87
2023-05-23T04:40:20.598Z,108.14
2023-05-23T04:41:21.623Z,106.65
2023-05-23T04:42:21.586Z,110.02
2023-05-23T04:43:21.594Z,107.25
2023-05-23T04:44:20.573Z,110.58
2023-05-23T04:45:21.569Z,109.77
2023-05-23T04:46:20.631Z,104.80
2023-05-23T04:47:20.551Z,107.85
2023-05-23T04:48:21.576Z,109.78
2023-05-23T04:49:20.681Z,105.55
2023-05-23T04:50:21.540Z,107.99
2023-05-23T04:51:21.539Z,107.72
2023-05-23T04:52:21.533Z,107.27
2023-05-23T04:53:21.511Z,108.13
2023-05-23T04:54:20.517Z,109.93
2023-05-23T04:55:21.527Z,110.55
2023-05-23T04:56:22.075Z,107.68
2023-05-23T04:57:21.500Z,107.77
2023-05-23T04:58:21.502Z,108.24
2023-05-23T04:59:21.491Z,107.90
2023-05-23T05:00:21.515Z,106.18
2023-05-23T05:01:22.244Z,105.79
2023-05-23T05:02:22.082Z,106.14
2023-05-23T05:03:20.461Z,106.22
2023-05-23T05:04:20.492Z,107.10
2023-05-23T05:05:21.577Z,107.51
2023-05-23T05:06:21.482Z,111.80
2023-05-23T05:07:20.438Z,113.21
2023-05-23T05:08:21.435Z,110.89
2023-05-23T05:09:21.416Z,110.83
2023-05-23T05:10:21.411Z,108.56
2023-05-23T05:11:21.398Z,109.40
2023-05-23T05:12:20.420Z,109.03
2023-05-23T05:13:20.398Z,105.50
2023-05-23T05:14:20.387Z,109.31
2023-05-23T05:15:20.384Z,108.49
2023-05-23T05:16:20.457Z,111.33
2023-05-23T05:17:21.421Z,108.59
2023-05-23T05:18:21.353Z,109.39
2023-05-23T05:19:20.360Z,108.69
2023-05-23T05:20:21.385Z,107.13
2023-05-23T05:21:21.480Z,107.27
2023-05-23T05:22:20.337Z,108.51
2023-05-23T05:23:20.301Z,107.05
2023-05-23T05:24:21.304Z,109.43
2023-05-23T05:25:20.304Z,106.72
2023-05-23T05:26:21.307Z,107.30
2023-05-23T05:27:21.295Z,108.60
2023-05-23T05:28:21.282Z,106.14
2023-05-23T05:29:21.314Z,105.87
2023-05-23T05:30:21.284Z,104.29
2023-05-23T05:31:21.281Z,108.19
2023-05-23T05:32:20.337Z,107.62
2023-05-23T05:33:20.266Z,106.87
2023-05-23T05:34:21.235Z,111.65
2023-05-23T05:35:21.256Z,108.89
2023-05-23T05:36:21.235Z,107.65
2023-05-23T05:37:21.399Z,107.75
2023-05-23T05:38:21.251Z,107.48
2023-05-23T05:39:21.224Z,109.69
2023-05-23T05:40:21.242Z,109.28
2023-05-23T05:41:21.265Z,110.36
2023-05-23T05:42:21.205Z,109.36
2023-05-23T05:43:21.190Z,110.10
2023-05-23T05:44:20.271Z,114.32
2023-05-23T05:45:21.324Z,113.67
2023-05-23T05:46:21.369Z,117.22
2023-05-23T05:47:21.174Z,116.58
2023-05-23T05:48:20.156Z,117.92
2023-05-23T05:49:21.149Z,117.44
2023-05-23T05:50:21.149Z,120.46
2023-05-23T05:51:21.155Z,123.75
2023-05-23T05:52:21.150Z,128.69
2023-05-23T05:53:21.245Z,124.27
2023-05-23T05:54:21.161Z,128.04
2023-05-23T05:55:21.130Z,127.19
2023-05-23T05:56:21.135Z,135.59
2023-05-23T05:57:21.137Z,133.91
2023-05-23T05:58:21.141Z,139.88
2023-05-23T05:59:21.225Z,141.92
2023-05-23T06:00:21.088Z,145.62
2023-05-23T06:01:21.105Z,152.52
2023-05-23T06:02:20.693Z,152.04
2023-05-23T06:03:21.147Z,156.28
2023-05-23T06:04:21.137Z,160.22
2023-05-23T06:05:21.054Z,166.11
2023-05-23T06:06:21.051Z,166.89
2023-05-23T06:07:21.094Z,174.02
2023-05-23T06:08:20.328Z,181.41
2023-05-23T06:09:20.397Z,185.92
2023-05-23T06:10:20.472Z,194.15
2023-05-23T06:11:20.254Z,200.26
2023-05-23T06:12:21.317Z,202.04
2023-05-23T06:13:21.299Z,205.48
2023-05-23T06:14:21.419Z,205.83
2023-05-23T06:15:21.552Z,213.30
2023-05-23T06:16:20.681Z,217.77
2023-05-23T06:17:21.853Z,221.30
2023-05-23T06:18:21.645Z,223.94
2023-05-23T06:19:21.663Z,229.33
2023-05-23T06:20:21.574Z,233.40
2023-05-23T06:21:20.532Z,234.52
2023-05-23T06:22:21.577Z,236.31
2023-05-23T06:23:21.549Z,242.03
2023-05-23T06:24:20.659Z,242.60
2023-05-23T06:25:21.648Z,247.42
2023-05-23T06:26:21.572Z,247.65
2023-05-23T06:27:27.502Z,247.73
2023-05-23T06:28:20.459Z,248.35
2023-05-23T06:29:21.449Z,249.80
2023-05-23T06:30:21.462Z,252.66
2023-05-23T06:31:21.469Z,257.52
2023-05-23T06:32:21.481Z,266.93
2023-05-23T06:33:21.433Z,250.00
2023-05-23T06:34:21.425Z,247.58
2023-05-23T06:35:20.409Z,247.30
2023-05-23T06:36:21.419Z,249.60
2023-05-23T06:37:21.473Z,249.09
2023-05-23T06:38:21.401Z,248.75
2023-05-23T06:39:20.380Z,249.73
2023-05-23T06:40:20.394Z,250.03
2023-05-23T06:41:20.513Z,250.00
2023-05-23T06:42:21.371Z,250.00
2023-05-23T06:43:21.369Z,250.00
2023-05-23T06:44:20.365Z,248.91
2023-05-23T06:45:21.359Z,250.00
2023-05-23T06:46:21.390Z,247.69
2023-05-23T06:47:21.370Z,249.32
2023-05-23T06:48:21.320Z,249.36
2023-05-23T06:49:21.312Z,248.38
2023-05-23T06:50:21.321Z,249.03
2023-05-23T06:51:21.368Z,251.04
2023-05-23T06:52:20.291Z,246.89
2023-05-23T06:53:21.562Z,244.24
2023-05-23T06:54:21.283Z,244.53
2023-05-23T06:55:21.369Z,248.74
2023-05-23T06:56:21.413Z,250.00
2023-05-23T06:57:20.584Z,249.03
2023-05-23T06:58:20.574Z,246.74
2023-05-23T06:59:21.578Z,249.54
2023-05-23T07:00:20.626Z,247.65
2023-05-23T07:01:21.670Z,245.48
2023-05-23T07:02:20.714Z,242.81
2023-05-23T07:03:21.666Z,241.06
2023-05-23T07:04:21.646Z,243.35
2023-05-23T07:05:21.700Z,239.30
2023-05-23T07:06:20.690Z,243.33
2023-05-23T07:07:20.649Z,243.31
2023-05-23T07:08:20.661Z,239.57
2023-05-23T07:09:21.671Z,240.36
2023-05-23T07:10:21.677Z,238.31
2023-05-23T07:11:20.697Z,238.68
2023-05-23T07:12:20.706Z,240.37
2023-05-23T07:13:21.823Z,239.05
2023-05-23T07:14:21.693Z,237.81
2023-05-23T07:15:20.714Z,238.70
2023-05-23T07:16:20.762Z,239.51
2023-05-23T07:17:20.835Z,235.61
2023-05-23T07:18:21.738Z,235.97
2023-05-23T07:19:20.784Z,237.68
2023-05-23T07:20:20.757Z,239.39
2023-05-23T07:21:21.763Z,238.79
2023-05-23T07:22:21.772Z,235.48
2023-05-23T07:23:21.829Z,237.01
2023-05-23T07:24:22.855Z,235.65
2023-05-23T07:25:20.819Z,241.62
2023-05-23T07:26:21.791Z,240.88
2023-05-23T07:27:21.790Z,238.41
2023-05-23T07:28:20.781Z,238.38
2023-05-23T07:29:21.919Z,239.49
2023-05-23T07:30:21.781Z,236.20
2023-05-23T07:31:21.892Z,236.16
2023-05-23T07:32:21.770Z,236.35
2023-05-23T07:33:21.786Z,236.75
2023-05-23T07:34:21.745Z,234.89
2023-05-23T07:35:21.755Z,236.70
2023-05-23T07:36:21.748Z,236.04
2023-05-23T07:37:21.748Z,233.88
2023-05-23T07:38:21.743Z,236.81
2023-05-23T07:39:20.727Z,233.46
2023-05-23T07:40:20.725Z,235.43
2023-05-23T07:41:20.733Z,234.42
2023-05-23T07:42:21.694Z,233.46
2023-05-23T07:43:21.697Z,233.19
2023-05-23T07:44:24.655Z,232.96
2023-05-23T07:45:21.691Z,233.16
2023-05-23T07:46:21.717Z,233.46
2023-05-23T07:47:21.747Z,234.33
2023-05-23T07:48:22.109Z,236.08
2023-05-23T07:49:21.671Z,238.57
2023-05-23T07:50:21.660Z,236.22
2023-05-23T07:51:21.660Z,235.77
2023-05-23T07:52:20.639Z,231.48
2023-05-23T07:53:22.098Z,233.61
2023-05-23T07:54:21.638Z,234.22
2023-05-23T07:55:21.609Z,232.13
2023-05-23T07:56:20.621Z,231.23
2023-05-23T07:57:20.609Z,230.95
2023-05-23T07:58:20.596Z,231.28
2023-05-23T07:59:20.582Z,230.91
2023-05-23T08:00:21.586Z,229.61
2023-05-23T08:01:20.600Z,229.80
2023-05-23T08:02:20.630Z,227.35
2023-05-23T08:03:21.630Z,228.37
2023-05-23T08:04:21.599Z,228.61
2023-05-23T08:05:21.537Z,230.42
2023-05-23T08:06:20.532Z,227.78
2023-05-23T08:07:21.539Z,227.26
2023-05-23T08:08:21.523Z,226.84
2023-05-23T08:09:21.532Z,226.42
2023-05-23T08:10:21.538Z,227.75
2023-05-23T08:11:20.524Z,228.36
2023-05-23T08:12:20.564Z,225.56
2023-05-23T08:13:21.577Z,227.27
2023-05-23T08:14:20.573Z,224.91
2023-05-23T08:15:21.592Z,225.93
2023-05-23T08:16:21.703Z,226.29
2023-05-23T08:17:20.840Z,224.81
2023-05-23T08:18:21.744Z,223.58
2023-05-23T08:19:21.784Z,225.38
2023-05-23T08:20:21.775Z,224.02
2023-05-23T08:21:20.800Z,222.04
2023-05-23T08:22:21.830Z,225.17
2023-05-23T08:23:20.867Z,223.20
2023-05-23T08:24:20.872Z,224.43
2023-05-23T08:25:21.896Z,226.04
2023-05-23T08:26:20.931Z,222.52
2023-05-23T08:27:20.936Z,222.15
2023-05-23T08:28:21.984Z,222.24
2023-05-23T08:29:22.031Z,223.18
2023-05-23T08:30:22.090Z,222.21
2023-05-23T08:31:22.104Z,220.42
2023-05-23T08:32:22.271Z,221.36
2023-05-23T08:33:21.260Z,221.52
2023-05-23T08:34:22.221Z,219.59
2023-05-23T08:35:21.250Z,222.19
2023-05-23T08:36:22.292Z,221.17
2023-05-23T08:37:22.330Z,221.33
2023-05-23T08:38:22.352Z,221.34
2023-05-23T08:39:22.385Z,220.06
2023-05-23T08:40:21.603Z,218.95
2023-05-23T08:41:22.469Z,222.89
2023-05-23T08:42:22.515Z,218.91
2023-05-23T08:43:22.627Z,225.73
2023-05-23T08:44:22.110Z,227.66
2023-05-23T08:45:21.607Z,225.17
2023-05-23T08:46:22.644Z,223.98
2023-05-23T08:47:21.643Z,224.26
2023-05-23T08:48:22.650Z,223.94
2023-05-23T08:49:22.699Z,225.44
2023-05-23T08:50:23.420Z,227.04
2023-05-23T08:51:22.629Z,227.68
2023-05-23T08:52:22.646Z,231.63
2023-05-23T08:53:22.719Z,230.98
2023-05-23T08:54:22.653Z,232.65
2023-05-23T08:55:22.684Z,232.37
2023-05-23T08:56:22.672Z,232.59
2023-05-23T08:57:21.702Z,233.77
2023-05-23T08:58:22.131Z,235.57
2023-05-23T08:59:22.730Z,235.99
2023-05-23T09:00:22.732Z,235.63
2023-05-23T09:01:22.772Z,235.35
2023-05-23T09:02:22.826Z,232.29
2023-05-23T09:03:21.719Z,233.03
2023-05-23T09:04:21.733Z,232.94
2023-05-23T09:05:21.808Z,235.30
2023-05-23T09:06:22.730Z,235.43
2023-05-23T09:07:22.752Z,232.67
2023-05-23T09:08:22.749Z,231.89
2023-05-23T09:09:21.740Z,234.22
2023-05-23T09:10:21.740Z,233.00
2023-05-23T09:11:22.727Z,234.96
2023-05-23T09:12:22.733Z,232.61
2023-05-23T09:13:22.760Z,231.48
2023-05-23T09:14:21.766Z,229.44
2023-05-23T09:15:22.746Z,230.79
2023-05-23T09:16:22.924Z,229.87
2023-05-23T09:17:21.812Z,230.92
2023-05-23T09:18:21.794Z,230.32
2023-05-23T09:19:22.846Z,229.20
2023-05-23T09:20:21.839Z,230.51
2023-05-23T09:21:22.841Z,231.19
2023-05-23T09:22:22.821Z,231.81
2023-05-23T09:23:22.839Z,229.41
2023-05-23T09:24:21.861Z,231.69
2023-05-23T09:25:22.866Z,232.07
2023-05-23T09:26:22.877Z,231.91
2023-05-23T09:27:22.887Z,230.71
2023-05-23T09:28:22.888Z,229.10
2023-05-23T09:29:22.902Z,230.50
2023-05-23T09:30:22.904Z,229.68
2023-05-23T09:31:22.976Z,228.97
2023-05-23T09:32:22.073Z,230.58
2023-05-23T09:33:22.975Z,230.67
2023-05-23T09:34:21.962Z,226.93
2023-05-23T09:35:21.973Z,228.40
2023-05-23T09:36:21.999Z,230.17
2023-05-23T09:37:23.025Z,227.92
2023-05-23T09:38:22.047Z,227.79
2023-05-23T09:39:23.036Z,229.55
2023-05-23T09:40:23.431Z,226.87
2023-05-23T09:41:22.041Z,225.28
2023-05-23T09:42:23.111Z,226.53
2023-05-23T09:43:22.091Z,228.47
2023-05-23T09:44:22.110Z,225.33
2023-05-23T09:45:22.125Z,228.34
2023-05-23T09:46:23.276Z,227.87
2023-05-23T09:47:22.292Z,226.40
2023-05-23T09:48:23.653Z,233.00
2023-05-23T09:49:23.178Z,230.00
2023-05-23T09:50:22.178Z,229.64
2023-05-23T09:51:23.211Z,226.25
2023-05-23T09:52:23.195Z,228.77
2023-05-23T09:53:23.209Z,224.41
2023-05-23T09:54:22.145Z,228.19
2023-05-23T09:55:23.167Z,227.53
2023-05-23T09:56:23.146Z,226.61
2023-05-23T09:57:23.148Z,226.92
2023-05-23T09:58:23.146Z,224.03
2023-05-23T09:59:23.149Z,225.15
2023-05-23T10:00:23.161Z,225.73
2023-05-23T10:01:23.208Z,222.81
2023-05-23T10:02:28.662Z,224.60
2023-05-23T10:03:22.124Z,224.84
2023-05-23T10:04:23.165Z,225.07
2023-05-23T10:05:23.121Z,226.13
2023-05-23T10:06:23.126Z,225.92
2023-05-23T10:07:23.173Z,227.47
2023-05-23T10:08:22.125Z,227.70
2023-05-23T10:09:23.136Z,225.48
2023-05-23T10:10:23.090Z,224.07
2023-05-23T10:11:23.090Z,223.75
2023-05-23T10:12:23.091Z,222.69
2023-05-23T10:13:22.085Z,222.75
2023-05-23T10:14:22.073Z,223.55
2023-05-23T10:15:23.086Z,221.04
2023-05-23T10:16:23.061Z,221.78
2023-05-23T10:17:23.083Z,221.39
2023-05-23T10:18:22.037Z,220.19
2023-05-23T10:19:22.080Z,222.28
2023-05-23T10:20:23.049Z,221.68
2023-05-23T10:21:23.035Z,220.85
2023-05-23T10:22:23.028Z,221.47
2023-05-23T10:23:22.022Z,221.00
2023-05-23T10:24:23.001Z,220.48
2023-05-23T10:25:22.020Z,221.44
2023-05-23T10:26:22.988Z,221.06
2023-05-23T10:27:22.981Z,220.77
2023-05-23T10:28:27.152Z,220.26
2023-05-23T10:29:22.957Z,220.48
2023-05-23T10:30:22.949Z,220.70
2023-05-23T10:31:22.998Z,221.07
2023-05-23T10:32:22.998Z,220.87
2023-05-23T10:33:21.987Z,221.58
2023-05-23T10:34:22.987Z,219.74
2023-05-23T10:35:23.019Z,218.31
2023-05-23T10:36:23.021Z,219.64
2023-05-23T10:37:23.033Z,219.54
2023-05-23T10:38:22.030Z,220.68
2023-05-23T10:39:22.016Z,219.58
2023-05-23T10:40:22.998Z,217.20
2023-05-23T10:41:23.036Z,216.66
2023-05-23T10:42:23.019Z,217.16
2023-05-23T10:43:23.166Z,217.39
2023-05-23T10:44:23.086Z,219.75
2023-05-23T10:45:22.159Z,219.67
2023-05-23T10:46:22.338Z,217.73
2023-05-23T10:47:22.301Z,217.64
2023-05-23T10:48:22.318Z,218.60
2023-05-23T10:49:22.349Z,218.47
2023-05-23T10:50:24.162Z,218.98
2023-05-23T10:51:22.473Z,218.35
2023-05-23T10:52:22.534Z,219.30
2023-05-23T10:53:22.587Z,219.66
2023-05-23T10:54:22.641Z,217.45
2023-05-23T10:55:23.687Z,218.79
2023-05-23T10:56:22.735Z,219.74
2023-05-23T10:57:23.870Z,216.24
2023-05-23T10:58:23.826Z,217.63
2023-05-23T10:59:23.895Z,216.75
2023-05-23T11:00:23.930Z,218.61
2023-05-23T11:01:24.226Z,217.70
2023-05-23T11:02:24.099Z,218.52
2023-05-23T11:03:23.110Z,217.72
2023-05-23T11:04:23.176Z,217.71
2023-05-23T11:05:23.292Z,217.06
2023-05-23T11:06:23.187Z,215.50
2023-05-23T11:07:23.219Z,218.13
2023-05-23T11:08:29.574Z,218.49
2023-05-23T11:09:24.277Z,218.71
2023-05-23T11:10:24.247Z,219.29
2023-05-23T11:11:24.242Z,218.98
2023-05-23T11:12:23.212Z,216.11
2023-05-23T11:13:23.260Z,218.47
2023-05-23T11:14:24.211Z,216.50
2023-05-23T11:15:24.194Z,218.21
2023-05-23T11:16:23.299Z,216.61
2023-05-23T11:17:24.283Z,214.33
2023-05-23T11:18:24.187Z,215.42
2023-05-23T11:19:24.222Z,214.35
2023-05-23T11:20:24.165Z,214.38
2023-05-23T11:21:23.158Z,216.45
2023-05-23T11:22:24.148Z,214.92
2023-05-23T11:23:24.227Z,214.99
2023-05-23T11:24:23.168Z,215.03
2023-05-23T11:25:23.139Z,212.72
2023-05-23T11:26:23.130Z,215.53
2023-05-23T11:27:24.114Z,213.43
2023-05-23T11:28:24.127Z,212.77
2023-05-23T11:29:23.133Z,211.47
2023-05-23T11:30:24.093Z,213.28
2023-05-23T11:31:24.121Z,212.14
2023-05-23T11:32:23.142Z,213.14
2023-05-23T11:33:23.102Z,213.15
2023-05-23T11:34:24.070Z,211.05
2023-05-23T11:35:24.079Z,211.39
2023-05-23T11:36:23.085Z,210.29
2023-05-23T11:37:25.935Z,210.28
2023-05-23T11:38:24.182Z,210.50
2023-05-23T11:39:24.109Z,210.85
2023-05-23T11:40:23.040Z,210.52
2023-05-23T11:41:23.036Z,210.93
2023-05-23T11:42:24.032Z,211.65
2023-05-23T11:43:23.031Z,211.08
2023-05-23T11:44:24.017Z,209.69
2023-05-23T11:45:23.033Z,208.41
2023-05-23T11:46:23.028Z,210.67
2023-05-23T11:47:24.080Z,209.78
2023-05-23T11:48:23.008Z,209.80
2023-05-23T11:49:23.992Z,209.18
2023-05-23T11:50:22.970Z,209.27
2023-05-23T11:51:22.984Z,210.26
2023-05-23T11:52:22.961Z,210.66
2023-05-23T11:53:23.986Z,209.39
2023-05-23T11:54:23.963Z,209.15
2023-05-23T11:55:22.962Z,208.46
2023-05-23T11:56:22.944Z,208.53
2023-05-23T11:57:23.924Z,205.66
2023-05-23T11:58:23.950Z,208.97
2023-05-23T11:59:23.922Z,204.42
2023-05-23T12:00:23.927Z,205.22
2023-05-23T12:01:23.031Z,206.60
2023-05-23T12:02:23.924Z,205.76
2023-05-23T12:03:24.104Z,206.41
2023-05-23T12:04:24.064Z,204.98
2023-05-23T12:05:22.870Z,204.16
2023-05-23T12:06:22.883Z,202.68
2023-05-23T12:07:23.902Z,205.05
2023-05-23T12:08:22.863Z,204.89
2023-05-23T12:09:23.848Z,204.01
2023-05-23T12:10:22.845Z,205.15
2023-05-23T12:11:23.859Z,204.38
2023-05-23T12:12:23.823Z,204.23
2023-05-23T12:13:23.827Z,202.61
2023-05-23T12:14:23.823Z,203.47
2023-05-23T12:15:22.822Z,201.36
2023-05-23T12:16:22.814Z,201.10
2023-05-23T12:17:23.819Z,199.52
2023-05-23T12:18:22.796Z,183.91
2023-05-23T12:19:22.941Z,167.96
2023-05-23T12:20:22.781Z,163.12
2023-05-23T12:21:23.777Z,159.39
2023-05-23T12:22:23.776Z,165.73
2023-05-23T12:23:22.798Z,174.08
2023-05-23T12:24:23.747Z,175.74
2023-05-23T12:25:23.770Z,174.79
2023-05-23T12:26:23.763Z,172.77
2023-05-23T12:27:23.758Z,175.16
2023-05-23T12:28:23.823Z,176.68